PWSweather.com
Personal Weather Stations
Station Observations
KCTHAMDEN
Dunbar Hill, Hamden, CT 06514

Dunbar HillHamden, CT 06514

Lat: 41.365437, Lon: -72.956532

Elevation: 200

Station Type: Davis Vantage Pro2+

www.hamdenweather.com

High Low Average
Temperature 78.4°F25.8°C 61.1°F16.2°C 70.1°F21.2°C
Dew Point 67.7°F19.8°C 59.4°F15.2°C 64.5°F18.1°C
Winds 5.2 mph 8.4 kmh Calm Calm 1.0 mph ESE1.6 kmh ESE
Wind Gusts 9.0 mph14.5 kmh -- 3.0 mph4.8 kmh
Humidity 95% 65% 83%
Pressure 30.16 in1021.3 mb 29.89 in1012.2 mb -
Precipitation 0.00 in0.0 mm - -
Hour Temp Dew Point Humidity Winds Wind Gusts Pressure Precip Precip Rate Daily Precip Total
12:00 AM 67.0°F19.4°C 62.3°F16.8°C 85% Calm Calm -- 30.16 in1021.3 mb - 0.00 in0.0 mm 0.00 in0.0 mm
12:15 AM 66.7°F19.3°C 62.4°F16.9°C 86% Calm Calm -- 30.16 in1021.3 mb - 0.00 in0.0 mm 0.00 in0.0 mm
12:30 AM 66.5°F19.2°C 62.5°F16.9°C 87% Calm Calm -- 30.16 in1021.3 mb - 0.00 in0.0 mm 0.00 in0.0 mm
12:45 AM 66.2°F19.0°C 62.2°F16.8°C 87% Calm Calm -- 30.15 in1021.0 mb - 0.00 in0.0 mm 0.00 in0.0 mm
01:00 AM 66.0°F18.9°C 62.0°F16.7°C 87% Calm Calm -- 30.15 in1021.0 mb - 0.00 in0.0 mm 0.00 in0.0 mm
01:15 AM 65.7°F18.7°C 62.1°F16.7°C 88% Calm Calm -- 30.15 in1021.0 mb - 0.00 in0.0 mm 0.00 in0.0 mm
01:30 AM 65.4°F18.6°C 61.8°F16.6°C 88% Calm Calm -- 30.15 in1021.0 mb - 0.00 in0.0 mm 0.00 in0.0 mm
01:45 AM 65.2°F18.4°C 61.9°F16.6°C 89% Calm Calm -- 30.14 in1020.7 mb - 0.00 in0.0 mm 0.00 in0.0 mm
02:00 AM 65.0°F18.3°C 62.0°F16.7°C 90% Calm Calm -- 30.14 in1020.7 mb - 0.00 in0.0 mm 0.00 in0.0 mm
02:15 AM 64.7°F18.2°C 61.7°F16.5°C 90% Calm Calm -- 30.13 in1020.3 mb - 0.00 in0.0 mm 0.00 in0.0 mm
02:30 AM 64.5°F18.1°C 61.5°F16.4°C 90% Calm Calm -- 30.13 in1020.3 mb - 0.00 in0.0 mm 0.00 in0.0 mm
02:45 AM 64.3°F17.9°C 61.3°F16.3°C 90% Calm Calm -- 30.12 in1020.0 mb - 0.00 in0.0 mm 0.00 in0.0 mm
03:00 AM 64.0°F17.8°C 61.4°F16.3°C 91% Calm Calm 1.0 mph1.6 kmh 30.13 in1020.3 mb - 0.00 in0.0 mm 0.00 in0.0 mm
03:15 AM 64.0°F17.8°C 61.3°F16.3°C 91% Calm Calm -- 30.13 in1020.3 mb - 0.00 in0.0 mm 0.00 in0.0 mm
03:30 AM 63.9°F17.7°C 61.2°F16.2°C 91% Calm Calm -- 30.13 in1020.3 mb - 0.00 in0.0 mm 0.00 in0.0 mm
03:45 AM 63.6°F17.6°C 61.3°F16.3°C 92% Calm Calm -- 30.13 in1020.3 mb - 0.00 in0.0 mm 0.00 in0.0 mm
04:00 AM 63.2°F17.3°C 60.5°F15.8°C 91% Calm Calm -- 30.12 in1020.0 mb - 0.00 in0.0 mm 0.00 in0.0 mm
04:15 AM 62.6°F17.0°C 60.2°F15.7°C 92% Calm Calm -- 30.12 in1020.0 mb - 0.00 in0.0 mm 0.00 in0.0 mm
04:30 AM 62.1°F16.7°C 59.7°F15.4°C 92% Calm Calm -- 30.13 in1020.3 mb - 0.00 in0.0 mm 0.00 in0.0 mm
04:45 AM 61.7°F16.5°C 59.7°F15.4°C 93% Calm Calm -- 30.13 in1020.3 mb - 0.00 in0.0 mm 0.00 in0.0 mm
05:00 AM 61.4°F16.3°C 59.4°F15.2°C 93% 0.2 mph SE0.3 kmh SE 1.0 mph1.6 kmh 30.13 in1020.3 mb - 0.00 in0.0 mm 0.00 in0.0 mm
05:15 AM 61.2°F16.2°C 59.5°F15.3°C 94% 0.1 mph SE0.2 kmh SE 1.0 mph1.6 kmh 30.13 in1020.3 mb - 0.00 in0.0 mm 0.00 in0.0 mm
05:30 AM 61.1°F16.2°C 59.4°F15.2°C 94% 0.1 mph ESE0.2 kmh ESE 2.0 mph3.2 kmh 30.14 in1020.7 mb - 0.00 in0.0 mm 0.00 in0.0 mm
05:45 AM 61.1°F16.2°C 59.7°F15.4°C 95% 0.2 mph NNE0.3 kmh NNE -- 30.14 in1020.7 mb - 0.00 in0.0 mm 0.00 in0.0 mm
06:00 AM 61.4°F16.3°C 60.0°F15.6°C 95% Calm Calm -- 30.14 in1020.7 mb - 0.00 in0.0 mm 0.00 in0.0 mm
06:15 AM 61.8°F16.6°C 60.4°F15.8°C 95% Calm Calm -- 30.14 in1020.7 mb - 0.00 in0.0 mm 0.00 in0.0 mm
06:30 AM 62.5°F16.9°C 61.1°F16.2°C 95% 1.4 mph NE2.3 kmh NE 3.0 mph4.8 kmh 30.14 in1020.7 mb - 0.00 in0.0 mm 0.00 in0.0 mm
06:45 AM 62.8°F17.1°C 61.3°F16.3°C 95% 0.3 mph N0.5 kmh N 2.0 mph3.2 kmh 30.14 in1020.7 mb - 0.00 in0.0 mm 0.00 in0.0 mm
07:00 AM 63.3°F17.4°C 61.6°F16.4°C 94% 0.6 mph NE1.0 kmh NE 2.0 mph3.2 kmh 30.14 in1020.7 mb - 0.00 in0.0 mm 0.00 in0.0 mm
07:15 AM 63.9°F17.7°C 61.8°F16.6°C 93% 0.1 mph E0.2 kmh E 2.0 mph3.2 kmh 30.14 in1020.7 mb - 0.00 in0.0 mm 0.00 in0.0 mm
07:30 AM 64.4°F18.0°C 62.0°F16.7°C 92% 0.1 mph WSW0.2 kmh WSW 1.0 mph1.6 kmh 30.14 in1020.7 mb - 0.00 in0.0 mm 0.00 in0.0 mm
07:45 AM 65.1°F18.4°C 62.4°F16.9°C 91% 0.2 mph NE0.3 kmh NE 1.0 mph1.6 kmh 30.13 in1020.3 mb - 0.00 in0.0 mm 0.00 in0.0 mm
08:00 AM 66.7°F19.3°C 63.3°F17.4°C 89% 1.7 mph E2.7 kmh E 3.0 mph4.8 kmh 30.13 in1020.3 mb - 0.00 in0.0 mm 0.00 in0.0 mm
08:15 AM 68.3°F20.2°C 63.3°F17.4°C 84% 1.2 mph NE1.9 kmh NE 4.0 mph6.4 kmh 30.13 in1020.3 mb - 0.00 in0.0 mm 0.00 in0.0 mm
08:30 AM 68.8°F20.4°C 63.1°F17.3°C 82% 1.5 mph NE2.4 kmh NE 3.0 mph4.8 kmh 30.12 in1020.0 mb - 0.00 in0.0 mm 0.00 in0.0 mm
08:45 AM 69.2°F20.7°C 63.8°F17.7°C 83% 3.1 mph ENE5.0 kmh ENE 5.0 mph8.0 kmh 30.12 in1020.0 mb - 0.00 in0.0 mm 0.00 in0.0 mm
09:00 AM 69.8°F21.0°C 63.7°F17.6°C 81% 2.0 mph N3.2 kmh N 3.0 mph4.8 kmh 30.12 in1020.0 mb - 0.00 in0.0 mm 0.00 in0.0 mm
09:15 AM 69.8°F21.0°C 63.7°F17.6°C 81% 0.3 mph NE0.5 kmh NE 2.0 mph3.2 kmh 30.12 in1020.0 mb - 0.00 in0.0 mm 0.00 in0.0 mm
09:30 AM 70.4°F21.3°C 63.9°F17.7°C 80% 3.8 mph ESE6.1 kmh ESE 7.0 mph11.3 kmh 30.12 in1020.0 mb - 0.00 in0.0 mm 0.00 in0.0 mm
09:45 AM 71.4°F21.9°C 63.8°F17.7°C 77% 3.5 mph E5.6 kmh E 6.0 mph9.7 kmh 30.12 in1020.0 mb - 0.00 in0.0 mm 0.00 in0.0 mm
10:00 AM 72.6°F22.6°C 65.3°F18.5°C 78% 5.2 mph E8.4 kmh E 9.0 mph14.5 kmh 30.12 in1020.0 mb - 0.00 in0.0 mm 0.00 in0.0 mm
10:15 AM 72.9°F22.7°C 63.7°F17.6°C 73% 3.0 mph E4.8 kmh E 7.0 mph11.3 kmh 30.12 in1020.0 mb - 0.00 in0.0 mm 0.00 in0.0 mm
10:30 AM 72.9°F22.7°C 63.7°F17.6°C 73% 1.0 mph SE1.6 kmh SE 3.0 mph4.8 kmh 30.11 in1019.6 mb - 0.00 in0.0 mm 0.00 in0.0 mm
10:45 AM 74.2°F23.4°C 65.4°F18.6°C 74% 3.5 mph ESE5.6 kmh ESE 5.0 mph8.0 kmh 30.11 in1019.6 mb - 0.00 in0.0 mm 0.00 in0.0 mm
11:00 AM 74.9°F23.8°C 66.1°F18.9°C 74% 2.5 mph E4.0 kmh E 8.0 mph12.9 kmh 30.10 in1019.3 mb - 0.00 in0.0 mm 0.00 in0.0 mm
11:15 AM 75.5°F24.2°C 65.4°F18.6°C 71% 3.8 mph ESE6.1 kmh ESE 7.0 mph11.3 kmh 30.09 in1019.0 mb - 0.00 in0.0 mm 0.00 in0.0 mm
11:30 AM 75.7°F24.3°C 65.2°F18.4°C 70% 1.2 mph NE1.9 kmh NE 1.0 mph1.6 kmh 30.09 in1019.0 mb - 0.00 in0.0 mm 0.00 in0.0 mm
11:45 AM 76.7°F24.8°C 65.3°F18.5°C 68% 4.6 mph E7.4 kmh E 8.0 mph12.9 kmh 30.08 in1018.6 mb - 0.00 in0.0 mm 0.00 in0.0 mm
12:00 PM 75.9°F24.4°C 66.2°F19.0°C 72% 1.4 mph NE2.3 kmh NE 2.0 mph3.2 kmh 30.07 in1018.3 mb - 0.00 in0.0 mm 0.00 in0.0 mm
12:15 PM 76.5°F24.7°C 66.0°F18.9°C 70% 3.5 mph E5.6 kmh E 4.0 mph6.4 kmh 30.07 in1018.3 mb - 0.00 in0.0 mm 0.00 in0.0 mm
12:30 PM 76.6°F24.8°C 65.3°F18.5°C 68% 1.8 mph E2.9 kmh E 3.0 mph4.8 kmh 30.07 in1018.3 mb - 0.00 in0.0 mm 0.00 in0.0 mm
12:45 PM 76.7°F24.8°C 65.3°F18.5°C 68% 0.9 mph ENE1.4 kmh ENE 3.0 mph4.8 kmh 30.07 in1018.3 mb - 0.00 in0.0 mm 0.00 in0.0 mm
01:00 PM 76.7°F24.8°C 66.6°F19.2°C 71% 4.2 mph E6.8 kmh E 6.0 mph9.7 kmh 30.06 in1017.9 mb - 0.00 in0.0 mm 0.00 in0.0 mm
01:15 PM 77.5°F25.3°C 66.5°F19.2°C 69% 2.5 mph E4.0 kmh E 3.0 mph4.8 kmh 30.05 in1017.6 mb - 0.00 in0.0 mm 0.00 in0.0 mm
01:30 PM 77.8°F25.4°C 65.9°F18.8°C 67% 1.6 mph SE2.6 kmh SE 6.0 mph9.7 kmh 30.05 in1017.6 mb - 0.00 in0.0 mm 0.00 in0.0 mm
01:45 PM 78.0°F25.6°C 65.2°F18.4°C 65% 1.0 mph SE1.6 kmh SE 2.0 mph3.2 kmh 30.04 in1017.3 mb - 0.00 in0.0 mm 0.00 in0.0 mm
02:00 PM 78.0°F25.6°C 66.6°F19.2°C 68% 1.7 mph S2.7 kmh S 2.0 mph3.2 kmh 30.03 in1016.9 mb - 0.00 in0.0 mm 0.00 in0.0 mm
02:15 PM 78.3°F25.7°C 67.3°F19.6°C 69% 2.3 mph SE3.7 kmh SE 4.0 mph6.4 kmh 30.03 in1016.9 mb - 0.00 in0.0 mm 0.00 in0.0 mm
02:30 PM 78.4°F25.8°C 67.0°F19.4°C 68% 1.5 mph SSE2.4 kmh SSE 4.0 mph6.4 kmh 30.03 in1016.9 mb - 0.00 in0.0 mm 0.00 in0.0 mm
02:45 PM 77.4°F25.2°C 66.4°F19.1°C 69% 1.6 mph SE2.6 kmh SE 2.0 mph3.2 kmh 30.03 in1016.9 mb - 0.00 in0.0 mm 0.00 in0.0 mm
03:00 PM 76.8°F24.9°C 67.1°F19.5°C 72% 1.6 mph SE2.6 kmh SE 3.0 mph4.8 kmh 30.02 in1016.6 mb - 0.00 in0.0 mm 0.00 in0.0 mm
03:15 PM 77.1°F25.1°C 67.0°F19.4°C 71% 0.5 mph SE0.8 kmh SE 1.0 mph1.6 kmh 30.02 in1016.6 mb - 0.00 in0.0 mm 0.00 in0.0 mm
03:30 PM 77.3°F25.2°C 67.6°F19.8°C 72% 1.5 mph SE2.4 kmh SE 2.0 mph3.2 kmh 30.01 in1016.3 mb - 0.00 in0.0 mm 0.00 in0.0 mm
03:45 PM 76.8°F24.9°C 67.1°F19.5°C 72% 2.6 mph ESE4.2 kmh ESE 5.0 mph8.0 kmh 30.01 in1016.3 mb - 0.00 in0.0 mm 0.00 in0.0 mm
04:00 PM 76.9°F24.9°C 67.2°F19.6°C 72% 4.3 mph E6.9 kmh E 7.0 mph11.3 kmh 30.00 in1015.9 mb - 0.00 in0.0 mm 0.00 in0.0 mm
04:15 PM 76.9°F24.9°C 67.2°F19.6°C 72% 0.6 mph ESE1.0 kmh ESE 2.0 mph3.2 kmh 30.00 in1015.9 mb - 0.00 in0.0 mm 0.00 in0.0 mm
04:30 PM 76.5°F24.7°C 67.6°F19.8°C 74% 2.6 mph E4.2 kmh E 4.0 mph6.4 kmh 30.00 in1015.9 mb - 0.00 in0.0 mm 0.00 in0.0 mm
04:45 PM 75.4°F24.1°C 67.3°F19.6°C 76% 0.2 mph ESE0.3 kmh ESE 2.0 mph3.2 kmh 29.99 in1015.6 mb - 0.00 in0.0 mm 0.00 in0.0 mm
05:00 PM 74.6°F23.7°C 66.5°F19.2°C 76% 1.2 mph ENE1.9 kmh ENE 6.0 mph9.7 kmh 30.00 in1015.9 mb - 0.00 in0.0 mm 0.00 in0.0 mm
05:15 PM 73.5°F23.1°C 66.6°F19.2°C 79% 3.7 mph SE6.0 kmh SE 4.0 mph6.4 kmh 29.99 in1015.6 mb - 0.00 in0.0 mm 0.00 in0.0 mm
05:30 PM 73.2°F22.9°C 67.0°F19.4°C 81% 0.6 mph SE1.0 kmh SE 8.0 mph12.9 kmh 29.99 in1015.6 mb - 0.00 in0.0 mm 0.00 in0.0 mm
05:45 PM 72.6°F22.6°C 66.5°F19.2°C 81% 0.4 mph S0.6 kmh S 1.0 mph1.6 kmh 29.99 in1015.6 mb - 0.00 in0.0 mm 0.00 in0.0 mm
06:00 PM 72.1°F22.3°C 66.6°F19.2°C 83% 1.3 mph E2.1 kmh E -- 29.99 in1015.6 mb - 0.00 in0.0 mm 0.00 in0.0 mm
06:15 PM 71.7°F22.1°C 66.6°F19.2°C 84% 0.9 mph ESE1.4 kmh ESE 4.0 mph6.4 kmh 29.99 in1015.6 mb - 0.00 in0.0 mm 0.00 in0.0 mm
06:30 PM 71.5°F21.9°C 66.7°F19.3°C 85% Calm Calm -- 29.99 in1015.6 mb - 0.00 in0.0 mm 0.00 in0.0 mm
06:45 PM 71.4°F21.9°C 67.0°F19.4°C 86% 0.3 mph E0.5 kmh E 4.0 mph6.4 kmh 29.98 in1015.2 mb - 0.00 in0.0 mm 0.00 in0.0 mm
07:00 PM 71.3°F21.8°C 66.9°F19.4°C 86% 1.9 mph SE3.1 kmh SE 5.0 mph8.0 kmh 29.98 in1015.2 mb - 0.00 in0.0 mm 0.00 in0.0 mm
07:15 PM 71.3°F21.8°C 66.9°F19.4°C 86% 0.5 mph SE0.8 kmh SE -- 29.98 in1015.2 mb - 0.00 in0.0 mm 0.00 in0.0 mm
07:30 PM 71.2°F21.8°C 66.8°F19.3°C 86% 0.6 mph S1.0 kmh S 1.0 mph1.6 kmh 29.98 in1015.2 mb - 0.00 in0.0 mm 0.00 in0.0 mm
07:45 PM 71.2°F21.8°C 66.8°F19.3°C 86% 0.6 mph E1.0 kmh E 7.0 mph11.3 kmh 29.98 in1015.2 mb - 0.00 in0.0 mm 0.00 in0.0 mm
08:00 PM 71.1°F21.7°C 66.7°F19.3°C 86% 3.0 mph ESE4.8 kmh ESE 6.0 mph9.7 kmh 29.98 in1015.2 mb - 0.00 in0.0 mm 0.00 in0.0 mm
08:15 PM 71.0°F21.7°C 66.6°F19.2°C 86% 2.3 mph E3.7 kmh E 4.0 mph6.4 kmh 29.99 in1015.6 mb - 0.00 in0.0 mm 0.00 in0.0 mm
08:30 PM 71.0°F21.7°C 66.6°F19.2°C 86% 0.2 mph ESE0.3 kmh ESE 1.0 mph1.6 kmh 29.98 in1015.2 mb - 0.00 in0.0 mm 0.00 in0.0 mm
08:45 PM 70.9°F21.6°C 66.8°F19.3°C 87% 2.7 mph SE4.3 kmh SE 9.0 mph14.5 kmh 29.98 in1015.2 mb - 0.00 in0.0 mm 0.00 in0.0 mm
09:00 PM 70.7°F21.5°C 66.6°F19.2°C 87% 0.9 mph SE1.4 kmh SE 2.0 mph3.2 kmh 29.98 in1015.2 mb - 0.00 in0.0 mm 0.00 in0.0 mm
09:15 PM 70.6°F21.4°C 66.5°F19.2°C 87% 2.6 mph ESE4.2 kmh ESE 7.0 mph11.3 kmh 29.96 in1014.6 mb - 0.00 in0.0 mm 0.00 in0.0 mm
09:30 PM 70.6°F21.4°C 66.9°F19.4°C 88% 1.2 mph ESE1.9 kmh ESE 3.0 mph4.8 kmh 29.96 in1014.6 mb - 0.00 in0.0 mm 0.00 in0.0 mm
09:45 PM 70.5°F21.4°C 67.1°F19.5°C 89% 1.2 mph E1.9 kmh E 3.0 mph4.8 kmh 29.95 in1014.2 mb - 0.00 in0.0 mm 0.00 in0.0 mm
10:00 PM 70.4°F21.3°C 67.0°F19.4°C 89% 1.9 mph ESE3.1 kmh ESE 3.0 mph4.8 kmh 29.95 in1014.2 mb - 0.00 in0.0 mm 0.00 in0.0 mm
10:15 PM 70.3°F21.3°C 67.2°F19.6°C 90% 2.4 mph SSE3.9 kmh SSE 3.0 mph4.8 kmh 29.94 in1013.9 mb - 0.00 in0.0 mm 0.00 in0.0 mm
10:30 PM 70.3°F21.3°C 67.2°F19.6°C 90% 1.9 mph SE3.1 kmh SE 3.0 mph4.8 kmh 29.93 in1013.5 mb - 0.00 in0.0 mm 0.00 in0.0 mm
10:45 PM 70.2°F21.2°C 67.4°F19.7°C 91% 1.4 mph SE2.3 kmh SE 6.0 mph9.7 kmh 29.93 in1013.5 mb - 0.00 in0.0 mm 0.00 in0.0 mm
11:00 PM 70.1°F21.2°C 67.3°F19.6°C 91% 0.8 mph S1.3 kmh S 2.0 mph3.2 kmh 29.91 in1012.9 mb - 0.00 in0.0 mm 0.00 in0.0 mm
11:15 PM 70.0°F21.1°C 67.3°F19.6°C 91% 0.2 mph ESE0.3 kmh ESE 1.0 mph1.6 kmh 29.91 in1012.9 mb - 0.00 in0.0 mm 0.00 in0.0 mm
11:30 PM 70.1°F21.2°C 67.7°F19.8°C 92% 1.7 mph ENE2.7 kmh ENE 2.0 mph3.2 kmh 29.90 in1012.5 mb - 0.00 in0.0 mm 0.00 in0.0 mm
11:45 PM 70.1°F21.2°C 67.7°F19.8°C 92% 4.1 mph E6.6 kmh E 4.0 mph6.4 kmh 29.89 in1012.2 mb - 0.00 in0.0 mm 0.00 in0.0 mm